createdAt,value
2023-02-23T00:02:15.723Z,13.75
2023-02-23T00:04:44.196Z,12.75
2023-02-23T00:07:12.961Z,13.00
2023-02-23T00:09:41.394Z,14.75
2023-02-23T00:12:09.838Z,17.75
2023-02-23T00:14:39.119Z,11.00
2023-02-23T00:17:15.429Z,16.25
2023-02-23T00:19:47.064Z,12.50
2023-02-23T00:22:15.457Z,10.50
2023-02-23T00:24:43.816Z,14.00
2023-02-23T00:27:18.700Z,12.25
2023-02-23T00:29:50.252Z,15.00
2023-02-23T00:32:22.328Z,15.00
2023-02-23T00:34:51.471Z,13.25
2023-02-23T00:37:20.479Z,10.50
2023-02-23T00:39:48.771Z,16.25
2023-02-23T00:42:17.151Z,12.00
2023-02-23T00:44:45.460Z,15.50
2023-02-23T00:47:13.886Z,14.75
2023-02-23T00:49:42.753Z,13.00
2023-02-23T00:52:11.060Z,14.75
2023-02-23T00:54:39.338Z,15.00
2023-02-23T00:57:07.622Z,13.75
2023-02-23T00:59:35.996Z,15.50
2023-02-23T01:02:04.481Z,10.50
2023-02-23T01:04:32.813Z,12.50
2023-02-23T01:07:01.140Z,15.00
2023-02-23T01:09:29.513Z,17.00
2023-02-23T01:12:02.470Z,15.50
2023-02-23T01:14:32.081Z,16.75
2023-02-23T01:17:01.237Z,14.00
2023-02-23T01:19:29.619Z,18.75
2023-02-23T01:21:57.961Z,17.75
2023-02-23T01:24:26.334Z,16.75
2023-02-23T01:26:54.790Z,19.50
2023-02-23T01:29:23.112Z,18.00
2023-02-23T01:31:54.283Z,15.50
2023-02-23T01:34:22.988Z,18.00
2023-02-23T01:36:52.313Z,18.00
2023-02-23T01:39:22.049Z,17.50
2023-02-23T01:41:52.758Z,19.50
2023-02-23T01:44:21.028Z,20.00
2023-02-23T01:46:51.134Z,23.25
2023-02-23T01:49:26.457Z,22.00
2023-02-23T01:52:06.058Z,21.75
2023-02-23T01:54:40.005Z,22.50
2023-02-23T01:57:12.490Z,21.50
2023-02-23T01:59:44.201Z,20.50
2023-02-23T02:02:14.264Z,23.25
2023-02-23T02:04:47.317Z,18.00
2023-02-23T02:07:28.013Z,19.00
2023-02-23T02:10:14.627Z,20.00
2023-02-23T02:12:46.371Z,18.75
2023-02-23T02:15:19.060Z,19.50
2023-02-23T02:18:10.067Z,19.25
2023-02-23T02:20:59.309Z,22.75
2023-02-23T02:23:54.862Z,20.50
2023-02-23T02:26:30.451Z,24.00
2023-02-23T02:29:16.744Z,22.25
2023-02-23T02:32:03.820Z,20.00
2023-02-23T02:35:08.395Z,19.25
2023-02-23T02:38:02.585Z,20.50
2023-02-23T02:41:10.117Z,17.25
2023-02-23T02:43:43.857Z,19.25
2023-02-23T02:46:24.748Z,19.25
2023-02-23T02:49:04.967Z,16.50
2023-02-23T02:51:37.658Z,17.50
2023-02-23T02:54:39.407Z,17.75
2023-02-23T02:57:09.002Z,17.00
2023-02-23T03:00:08.564Z,22.25
2023-02-23T03:02:58.998Z,21.25
2023-02-23T03:05:53.871Z,20.00
2023-02-23T03:08:53.144Z,18.75
2023-02-23T03:11:39.707Z,19.75
2023-02-23T03:14:26.526Z,17.75
2023-02-23T03:17:12.840Z,14.50
2023-02-23T03:20:20.391Z,17.50
2023-02-23T03:23:37.690Z,17.00
2023-02-23T03:26:57.868Z,17.25
2023-02-23T03:30:03.187Z,14.75
2023-02-23T03:33:13.174Z,18.25
2023-02-23T03:36:23.210Z,18.00
2023-02-23T03:39:19.180Z,15.25
2023-02-23T03:42:09.791Z,17.75
2023-02-23T03:45:01.890Z,16.75
2023-02-23T03:47:54.466Z,15.75
2023-02-23T03:50:48.945Z,14.50
2023-02-23T03:53:41.067Z,16.75
2023-02-23T03:56:29.640Z,16.75
2023-02-23T03:59:19.766Z,15.25
2023-02-23T04:02:07.949Z,14.75
2023-02-23T04:04:56.156Z,16.75
2023-02-23T04:07:43.510Z,14.00
2023-02-23T04:10:31.643Z,14.00
2023-02-23T04:13:17.388Z,16.00
2023-02-23T04:16:02.450Z,19.00
2023-02-23T04:18:34.402Z,19.00
2023-02-23T04:21:03.896Z,15.75
2023-02-23T04:23:32.894Z,13.25
2023-02-23T04:26:01.268Z,18.00
2023-02-23T04:28:30.426Z,18.50
2023-02-23T04:30:58.805Z,14.75
2023-02-23T04:33:28.158Z,14.00
2023-02-23T04:35:56.889Z,13.00
2023-02-23T04:38:25.638Z,15.00
2023-02-23T04:40:54.055Z,15.00
2023-02-23T04:43:22.399Z,15.00
2023-02-23T04:45:50.733Z,15.25
2023-02-23T04:48:19.048Z,16.25
2023-02-23T04:50:47.342Z,13.50
2023-02-23T04:53:15.750Z,16.50
2023-02-23T04:55:44.795Z,17.25
2023-02-23T04:58:15.004Z,11.75
2023-02-23T05:00:43.613Z,16.50
2023-02-23T05:03:13.162Z,15.00
2023-02-23T05:05:41.590Z,13.75
2023-02-23T05:08:10.207Z,12.00
2023-02-23T05:10:40.252Z,15.25
2023-02-23T05:13:09.010Z,14.00
2023-02-23T05:15:38.264Z,10.75
2023-02-23T05:18:06.722Z,12.00
2023-02-23T05:20:35.176Z,13.25
2023-02-23T05:23:03.680Z,12.00
2023-02-23T05:25:31.996Z,11.00
2023-02-23T05:28:00.623Z,11.50
2023-02-23T05:30:28.980Z,9.25
2023-02-23T05:32:57.326Z,12.25
2023-02-23T05:35:25.787Z,11.00
2023-02-23T05:37:54.174Z,13.00
2023-02-23T05:40:22.505Z,12.75
2023-02-23T05:42:50.889Z,13.75
2023-02-23T05:45:19.293Z,12.00
2023-02-23T05:47:47.595Z,11.00
2023-02-23T05:50:15.892Z,12.75
2023-02-23T05:52:44.238Z,14.00
2023-02-23T05:55:13.728Z,12.00
2023-02-23T05:57:42.320Z,12.50
2023-02-23T06:00:11.632Z,14.50
2023-02-23T06:02:40.936Z,16.00
2023-02-23T06:05:11.728Z,14.25
2023-02-23T06:07:40.526Z,13.25
2023-02-23T06:10:09.703Z,12.75
2023-02-23T06:12:38.048Z,13.75
2023-02-23T06:15:06.940Z,11.25
2023-02-23T06:17:35.302Z,12.25
2023-02-23T06:20:05.712Z,15.25
2023-02-23T06:22:34.127Z,15.50
2023-02-23T06:25:06.587Z,13.00
2023-02-23T06:27:34.877Z,14.00
2023-02-23T06:30:03.161Z,14.00
2023-02-23T06:32:31.535Z,11.75
2023-02-23T06:35:00.649Z,12.25
2023-02-23T06:37:29.942Z,12.25
2023-02-23T06:39:58.428Z,15.50
2023-02-23T06:42:26.918Z,13.00
2023-02-23T06:44:55.233Z,11.50
2023-02-23T06:47:23.780Z,14.75
2023-02-23T06:49:52.082Z,12.25
2023-02-23T06:52:20.376Z,12.75
2023-02-23T06:54:50.911Z,14.00
2023-02-23T06:57:20.344Z,14.25
2023-02-23T06:59:48.740Z,14.75
2023-02-23T07:02:17.163Z,12.00
2023-02-23T07:04:45.553Z,12.75
2023-02-23T07:07:14.119Z,14.50
2023-02-23T07:09:43.866Z,13.00
2023-02-23T07:12:12.263Z,13.50
2023-02-23T07:14:41.066Z,13.00
2023-02-23T07:17:11.552Z,13.75
2023-02-23T07:19:41.021Z,13.00
2023-02-23T07:22:09.365Z,14.00
2023-02-23T07:24:38.463Z,14.75
2023-02-23T07:27:06.780Z,13.50
2023-02-23T07:29:35.171Z,12.00
2023-02-23T07:32:03.603Z,12.75
2023-02-23T07:34:31.995Z,14.25
2023-02-23T07:37:00.318Z,14.50
2023-02-23T07:39:28.766Z,15.75
2023-02-23T07:41:57.082Z,14.50
2023-02-23T07:44:25.465Z,13.50
2023-02-23T07:46:54.139Z,12.75
2023-02-23T07:49:22.444Z,14.50
2023-02-23T07:51:50.781Z,12.75
2023-02-23T07:54:19.116Z,12.75
2023-02-23T07:56:47.447Z,14.50
2023-02-23T07:59:16.263Z,11.75
2023-02-23T08:01:44.712Z,15.00
2023-02-23T08:04:13.087Z,15.25
2023-02-23T08:06:41.417Z,13.25
2023-02-23T08:09:09.939Z,13.25
2023-02-23T08:11:38.264Z,13.50
2023-02-23T08:14:06.725Z,13.50
2023-02-23T08:16:35.403Z,13.50
2023-02-23T08:19:03.897Z,13.50
2023-02-23T08:21:32.852Z,15.50
2023-02-23T08:24:01.472Z,15.00
2023-02-23T08:26:29.837Z,12.50
2023-02-23T08:28:58.262Z,13.50
2023-02-23T08:31:28.481Z,13.50
2023-02-23T08:33:57.049Z,12.00
2023-02-23T08:36:25.451Z,12.75
2023-02-23T08:38:55.117Z,14.75
2023-02-23T08:41:23.500Z,12.25
2023-02-23T08:43:51.939Z,12.75
2023-02-23T08:46:21.482Z,16.00
2023-02-23T08:48:49.920Z,12.25
2023-02-23T08:51:18.746Z,14.75
2023-02-23T08:53:47.527Z,15.25
2023-02-23T08:56:16.441Z,13.75
2023-02-23T08:58:44.879Z,13.75
2023-02-23T09:01:22.802Z,13.25
2023-02-23T09:03:51.636Z,11.00
2023-02-23T09:06:23.047Z,14.50
2023-02-23T09:08:51.473Z,16.50
2023-02-23T09:11:20.102Z,16.25
2023-02-23T09:13:48.723Z,17.25
2023-02-23T09:16:17.508Z,14.00
2023-02-23T09:18:46.172Z,13.50
2023-02-23T09:21:21.968Z,14.75
2023-02-23T09:23:52.212Z,14.00
2023-02-23T09:26:21.982Z,16.50
2023-02-23T09:28:50.849Z,17.00
2023-02-23T09:31:22.535Z,17.50
2023-02-23T09:33:52.589Z,14.50
2023-02-23T09:36:26.585Z,12.00
2023-02-23T09:38:58.100Z,14.75
2023-02-23T09:42:01.640Z,16.50
2023-02-23T09:44:44.169Z,14.25
2023-02-23T09:47:27.310Z,12.75
2023-02-23T09:49:57.401Z,13.75
2023-02-23T09:52:43.073Z,16.50
2023-02-23T09:55:14.618Z,14.50
2023-02-23T09:57:47.204Z,13.00
2023-02-23T10:00:25.090Z,14.00
2023-02-23T10:03:34.711Z,16.25
2023-02-23T10:06:10.210Z,13.75
2023-02-23T10:09:12.672Z,17.00
2023-02-23T10:12:06.761Z,16.50
2023-02-23T10:14:51.969Z,14.50
2023-02-23T10:17:35.230Z,11.75
2023-02-23T10:20:21.127Z,13.25
2023-02-23T10:22:51.334Z,16.00
2023-02-23T10:25:26.946Z,16.75
2023-02-23T10:27:58.484Z,17.00
2023-02-23T10:30:30.210Z,14.75
2023-02-23T10:33:28.299Z,14.75
2023-02-23T10:36:12.854Z,16.25
2023-02-23T10:38:41.869Z,15.00
2023-02-23T10:41:14.719Z,18.50
2023-02-23T10:43:43.677Z,18.00
2023-02-23T10:46:22.713Z,15.50
2023-02-23T10:48:53.893Z,17.00
2023-02-23T10:51:29.526Z,12.75
2023-02-23T10:54:07.484Z,14.25
2023-02-23T10:56:47.631Z,15.25
2023-02-23T10:59:22.335Z,14.75
2023-02-23T11:02:01.560Z,16.00
2023-02-23T11:04:35.682Z,15.75
2023-02-23T11:07:17.814Z,15.75
2023-02-23T11:09:48.141Z,14.25
2023-02-23T11:12:27.018Z,16.25
2023-02-23T11:14:58.057Z,16.25
2023-02-23T11:17:38.776Z,15.00
2023-02-23T11:20:19.038Z,14.50
2023-02-23T11:22:47.697Z,15.75
2023-02-23T11:25:25.527Z,13.25
2023-02-23T11:27:54.854Z,14.25
2023-02-23T11:30:26.321Z,15.00
2023-02-23T11:33:03.473Z,15.00
2023-02-23T11:35:33.224Z,13.75
2023-02-23T11:38:15.474Z,15.25
2023-02-23T11:40:43.805Z,16.25
2023-02-23T11:43:21.825Z,15.75
2023-02-23T11:45:53.236Z,14.50
2023-02-23T11:48:39.817Z,16.25
2023-02-23T11:51:08.956Z,14.25
2023-02-23T11:53:41.387Z,23.50
2023-02-23T11:56:13.413Z,24.00
2023-02-23T11:58:45.474Z,22.00
2023-02-23T12:01:18.025Z,20.25
2023-02-23T12:03:54.037Z,20.75
2023-02-23T12:06:43.563Z,34.50
2023-02-23T12:09:33.919Z,32.75
2023-02-23T12:12:15.365Z,36.00
2023-02-23T12:14:52.242Z,40.75
2023-02-23T12:17:36.529Z,32.75
2023-02-23T12:20:30.402Z,29.50
2023-02-23T12:23:09.280Z,27.75
2023-02-23T12:25:54.054Z,28.75
2023-02-23T12:28:44.637Z,32.50
2023-02-23T12:31:41.460Z,32.00
2023-02-23T12:34:28.629Z,34.00
2023-02-23T12:37:10.444Z,34.25
2023-02-23T12:39:44.518Z,32.00
2023-02-23T12:42:29.918Z,34.75
2023-02-23T12:45:05.116Z,31.00
2023-02-23T12:48:01.299Z,30.75
2023-02-23T12:50:31.915Z,29.00
2023-02-23T12:53:09.118Z,27.00
2023-02-23T12:55:49.631Z,25.75
2023-02-23T12:58:29.818Z,26.75
2023-02-23T13:01:05.258Z,24.50
2023-02-23T13:03:42.328Z,24.25
2023-02-23T13:06:21.611Z,26.25
2023-02-23T13:09:10.023Z,26.75
2023-02-23T13:12:12.354Z,28.75
2023-02-23T13:14:57.708Z,27.00
2023-02-23T13:17:28.865Z,24.75
2023-02-23T13:20:02.763Z,25.25
2023-02-23T13:22:47.139Z,21.50
2023-02-23T13:25:42.733Z,22.50
2023-02-23T13:28:38.298Z,25.25
2023-02-23T13:31:13.383Z,23.50
2023-02-23T13:33:44.290Z,24.50
2023-02-23T13:36:13.804Z,25.50
2023-02-23T13:38:47.640Z,22.25
2023-02-23T13:41:35.056Z,28.00
2023-02-23T13:44:21.771Z,26.25
2023-02-23T13:47:07.898Z,24.00
2023-02-23T13:49:55.980Z,28.25
2023-02-23T13:52:42.509Z,28.25
2023-02-23T13:55:40.057Z,28.25
2023-02-23T13:58:19.395Z,27.25
2023-02-23T14:01:04.289Z,29.50
2023-02-23T14:03:41.057Z,26.25
2023-02-23T14:06:13.788Z,25.00
2023-02-23T14:08:46.281Z,30.50
2023-02-23T14:11:31.080Z,26.50
2023-02-23T14:14:03.231Z,28.25
2023-02-23T14:16:32.162Z,27.25
2023-02-23T14:19:10.840Z,29.25
2023-02-23T14:21:51.003Z,26.50
2023-02-23T14:24:21.278Z,26.25
2023-02-23T14:27:27.822Z,28.25
2023-02-23T14:30:11.931Z,29.75
2023-02-23T14:32:46.728Z,26.75
2023-02-23T14:35:33.778Z,24.75
2023-02-23T14:38:17.540Z,28.50
2023-02-23T14:40:50.241Z,28.75
2023-02-23T14:43:36.942Z,26.75
2023-02-23T14:46:09.845Z,24.75
2023-02-23T14:48:59.518Z,28.75
2023-02-23T14:51:45.833Z,28.25
2023-02-23T14:54:24.528Z,29.25
2023-02-23T14:56:56.112Z,32.25
2023-02-23T14:59:28.335Z,29.25
2023-02-23T15:02:00.858Z,28.00
2023-02-23T15:04:31.426Z,26.50
2023-02-23T15:07:03.165Z,28.00
2023-02-23T15:09:44.258Z,29.25
2023-02-23T15:12:21.406Z,31.50
2023-02-23T15:14:51.230Z,27.50
2023-02-23T15:17:25.381Z,28.50
2023-02-23T15:20:14.800Z,29.75
2023-02-23T15:22:52.230Z,30.50
2023-02-23T15:25:24.835Z,31.00
2023-02-23T15:27:54.062Z,31.50
2023-02-23T15:30:33.318Z,29.00
2023-02-23T15:33:13.348Z,30.50
2023-02-23T15:35:53.713Z,32.50
2023-02-23T15:38:44.138Z,32.75
2023-02-23T15:41:31.824Z,34.75
2023-02-23T15:44:29.676Z,31.75
2023-02-23T15:47:07.779Z,34.25
2023-02-23T15:49:41.188Z,34.25
2023-02-23T15:52:21.788Z,31.75
2023-02-23T15:55:02.479Z,32.50
2023-02-23T15:57:33.137Z,33.75
2023-02-23T16:00:11.268Z,31.50
2023-02-23T16:02:42.233Z,30.50
2023-02-23T16:05:21.371Z,31.75
2023-02-23T16:07:49.774Z,33.00
2023-02-23T16:10:25.935Z,30.75
2023-02-23T16:12:55.579Z,31.50
2023-02-23T16:15:28.773Z,35.25
2023-02-23T16:18:03.844Z,30.50
2023-02-23T16:20:42.326Z,32.00
2023-02-23T16:23:34.211Z,32.00
2023-02-23T16:26:13.822Z,33.50
2023-02-23T16:28:45.936Z,34.50
2023-02-23T16:31:21.364Z,33.75
2023-02-23T16:33:55.418Z,32.50
2023-02-23T16:36:26.202Z,37.25
2023-02-23T16:38:59.009Z,33.75
2023-02-23T16:41:31.418Z,32.75
2023-02-23T16:44:03.271Z,34.50
2023-02-23T16:46:38.638Z,33.00
2023-02-23T16:49:11.071Z,33.50
2023-02-23T16:51:39.409Z,33.00
2023-02-23T16:54:09.309Z,32.00
2023-02-23T16:56:40.811Z,31.00
2023-02-23T16:59:15.155Z,31.75
2023-02-23T17:01:43.548Z,31.75
2023-02-23T17:04:16.360Z,30.50
2023-02-23T17:06:53.733Z,31.00
2023-02-23T17:09:22.485Z,34.25
2023-02-23T17:11:50.829Z,32.00
2023-02-23T17:14:28.973Z,32.00
2023-02-23T17:16:57.371Z,34.00
2023-02-23T17:19:26.136Z,32.25
2023-02-23T17:21:54.568Z,32.75
2023-02-23T17:24:27.116Z,33.75
2023-02-23T17:26:56.444Z,34.00
2023-02-23T17:29:25.436Z,33.50
2023-02-23T17:31:54.066Z,31.75
2023-02-23T17:34:22.638Z,34.75
2023-02-23T17:36:50.959Z,34.00
2023-02-23T17:39:19.589Z,35.50
2023-02-23T17:41:48.334Z,30.75
2023-02-23T17:44:16.627Z,33.50
2023-02-23T17:46:45.576Z,33.00
2023-02-23T17:49:13.870Z,34.50
2023-02-23T17:51:42.192Z,34.25
2023-02-23T17:54:10.700Z,34.75
2023-02-23T17:56:39.274Z,35.25
2023-02-23T17:59:07.669Z,33.75
2023-02-23T18:01:35.974Z,34.00
2023-02-23T18:04:04.643Z,33.00
2023-02-23T18:06:33.000Z,33.00
2023-02-23T18:09:02.030Z,34.75
2023-02-23T18:11:30.364Z,31.50
2023-02-23T18:13:59.027Z,32.50
2023-02-23T18:16:27.938Z,34.50
2023-02-23T18:18:58.976Z,35.50
2023-02-23T18:21:28.167Z,35.00
2023-02-23T18:23:56.672Z,34.75
2023-02-23T18:26:25.830Z,36.00
2023-02-23T18:28:55.190Z,33.25
2023-02-23T18:31:26.602Z,33.75
2023-02-23T18:33:55.621Z,35.00
2023-02-23T18:36:30.302Z,34.00
2023-02-23T18:39:00.579Z,34.75
2023-02-23T18:41:31.750Z,35.75
2023-02-23T18:44:05.218Z,36.00
2023-02-23T18:46:33.917Z,35.25
2023-02-23T18:49:02.726Z,35.25
2023-02-23T18:51:31.488Z,35.25
2023-02-23T18:54:00.758Z,34.25
2023-02-23T18:56:29.859Z,38.00
2023-02-23T18:59:00.746Z,33.25
2023-02-23T19:01:32.651Z,34.50
2023-02-23T19:04:03.063Z,34.25
2023-02-23T19:06:32.214Z,36.75
2023-02-23T19:09:04.239Z,33.50
2023-02-23T19:11:34.731Z,33.75
2023-02-23T19:14:06.388Z,33.50
2023-02-23T19:16:36.328Z,36.00
2023-02-23T19:19:07.028Z,35.75
2023-02-23T19:21:35.650Z,35.00
2023-02-23T19:24:04.406Z,35.00
2023-02-23T19:26:34.748Z,33.00
2023-02-23T19:29:03.410Z,38.00
2023-02-23T19:31:31.951Z,34.25
2023-02-23T19:34:00.695Z,35.00
2023-02-23T19:36:34.785Z,33.00
2023-02-23T19:39:16.459Z,33.75
2023-02-23T19:41:46.250Z,35.00
2023-02-23T19:44:14.534Z,34.25
2023-02-23T19:46:43.859Z,32.75
2023-02-23T19:49:12.696Z,34.25
2023-02-23T19:51:41.048Z,33.50
2023-02-23T19:54:09.695Z,35.00
2023-02-23T19:56:39.017Z,34.50
2023-02-23T19:59:07.862Z,37.00
2023-02-23T20:01:37.049Z,37.25
2023-02-23T20:04:06.913Z,36.25
2023-02-23T20:06:41.944Z,33.00
2023-02-23T20:09:10.526Z,37.00
2023-02-23T20:11:38.983Z,35.25
2023-02-23T20:14:09.040Z,33.25
2023-02-23T20:16:37.759Z,35.00
2023-02-23T20:19:07.600Z,36.75
2023-02-23T20:21:37.614Z,36.00
2023-02-23T20:24:06.531Z,34.25
2023-02-23T20:26:37.922Z,35.00
2023-02-23T20:29:11.588Z,34.75
2023-02-23T20:31:42.839Z,34.00
2023-02-23T20:34:12.050Z,34.50
2023-02-23T20:36:40.952Z,34.50
2023-02-23T20:39:11.506Z,35.00
2023-02-23T20:41:44.915Z,34.25
2023-02-23T20:44:15.069Z,34.25
2023-02-23T20:46:45.537Z,33.75
2023-02-23T20:49:15.172Z,35.00
2023-02-23T20:51:45.733Z,35.50
2023-02-23T20:54:15.505Z,34.50
2023-02-23T20:56:44.953Z,35.00
2023-02-23T20:59:14.785Z,36.00
2023-02-23T21:01:45.240Z,34.50
2023-02-23T21:04:14.049Z,34.75
2023-02-23T21:06:43.080Z,34.75
2023-02-23T21:09:18.089Z,34.50
2023-02-23T21:11:47.352Z,32.00
2023-02-23T21:14:16.406Z,34.00
2023-02-23T21:16:47.957Z,35.75
2023-02-23T21:19:18.244Z,34.50
2023-02-23T21:21:49.754Z,36.50
2023-02-23T21:24:19.848Z,32.00
2023-02-23T21:26:48.900Z,36.50
2023-02-23T21:29:17.473Z,33.25
2023-02-23T21:31:47.744Z,37.25
2023-02-23T21:34:22.610Z,33.00
2023-02-23T21:36:52.263Z,33.50
2023-02-23T21:39:20.898Z,38.75
2023-02-23T21:41:49.418Z,34.25
2023-02-23T21:44:17.738Z,37.00
2023-02-23T21:46:46.063Z,34.00
2023-02-23T21:49:14.513Z,35.25
2023-02-23T21:51:42.889Z,37.00
2023-02-23T21:54:11.952Z,38.25
2023-02-23T21:56:40.333Z,35.25
2023-02-23T21:59:09.431Z,35.00
2023-02-23T22:01:40.540Z,35.75
2023-02-23T22:04:12.535Z,33.75
2023-02-23T22:06:44.670Z,38.00
2023-02-23T22:09:16.502Z,37.50
2023-02-23T22:11:48.088Z,34.50
2023-02-23T22:14:20.186Z,34.75
2023-02-23T22:16:50.582Z,35.25
2023-02-23T22:19:19.692Z,37.25
2023-02-23T22:21:51.317Z,34.75
2023-02-23T22:24:19.934Z,36.00
2023-02-23T22:26:55.372Z,35.00
2023-02-23T22:29:26.086Z,35.75
2023-02-23T22:31:54.621Z,36.75
2023-02-23T22:34:23.448Z,36.50
2023-02-23T22:36:51.946Z,36.75
2023-02-23T22:39:20.885Z,37.00
2023-02-23T22:41:49.980Z,37.00
2023-02-23T22:44:23.523Z,37.75
2023-02-23T22:46:53.103Z,39.00
2023-02-23T22:49:21.517Z,37.50
2023-02-23T22:51:51.350Z,38.50
2023-02-23T22:54:21.320Z,38.75
2023-02-23T22:56:49.933Z,34.75
2023-02-23T22:59:21.259Z,37.75
2023-02-23T23:01:51.139Z,37.75
2023-02-23T23:04:22.826Z,36.25
2023-02-23T23:06:51.610Z,34.00
2023-02-23T23:09:22.010Z,35.00
2023-02-23T23:11:51.810Z,37.25
2023-02-23T23:14:20.648Z,38.00
2023-02-23T23:16:49.057Z,37.50
2023-02-23T23:19:26.902Z,37.25
2023-02-23T23:21:56.470Z,37.25
2023-02-23T23:24:26.102Z,37.50
2023-02-23T23:27:01.215Z,37.00
2023-02-23T23:29:31.405Z,36.25
2023-02-23T23:32:01.953Z,38.50
2023-02-23T23:34:34.348Z,37.25
2023-02-23T23:37:03.682Z,38.25
2023-02-23T23:39:31.983Z,36.00
2023-02-23T23:42:02.705Z,36.00
2023-02-23T23:44:31.028Z,37.50
2023-02-23T23:46:59.552Z,40.25
2023-02-23T23:49:27.894Z,38.00
2023-02-23T23:51:57.545Z,41.50
2023-02-23T23:54:34.272Z,41.50
2023-02-23T23:57:02.882Z,38.00
2023-02-23T23:59:32.798Z,40.25
